Huvudsida
METAR-TAF:

METAR-TAF

Flygplatser :

Lokpriya Gopinath Bordoloi International Airport

Guwahati, Indien

latitud: 26-06-22N, longitud: 091-35-09E, höjd: 49 m

Aktuellt väderrapport

Denna rapport gjordes för 23 minuter sedan, klockan 11:30 UTC
Vind 10 kt från syd/sydväst
Temperatur 36°C
Fuktighet 35%
Tryck 999 hPa
Sikt: 3500 m
Få moln på en höjd av 1800 ft
Spridda moln på en höjd av 10000 ft
torrdis,

METAR: VEGT 241130Z 20010KT 3500 HZ FEW018 SCT100 36/18 Q0999 NOSIG

Tid: 17:23 (11:53 UTC)

Väderprognos

Denna rapport gjordes för 53 minuter sedan, klockan 11:00 UTC
Prognos gäller från 24 kl. 12 UTC till 24 kl. 21 UTC
Vind 8 kt från sydväst
Sikt: 3500 m
Spridda moln på en höjd av 1800 ft
Brutna moln på en höjd av 10000 ft
torrdis
Blir
från 24 kl. 13 UTC till 24 kl. 15 UTC
Vind 7 kt från ost
Sikt: 3000 m
regn, fuktdis,

TAF: VEGT 241100Z 2412/2421 22008KT 3500 HZ SCT018 BKN100 BECMG 2413/2415 08007KT 3000 RA BR

Aktuella väderrapporter och prognoser från 4000 flygplatser (METAR- och TAF-rapporter).

De tillgängliga stationerna syns som gula och röda prickar på kartan.

För musen över prickarna för att se namnen på stationerna.

Klicka sedan för att få väderrapporter och prognoser.

För att ändra kartan: Klicka på de gröna knapparna med ett svart kors på för att zooma in; den gröna knappen med ett streck på för att zooma ut; eller på de gröna pilarna för angränsande kartor.


METAR-TAF: